Time;durP1;ratioP1;P1;durP2;ratioP2;P2;SDS_P1;SDS_P2;PMS_P1;PMS_P2;Temp;Humidity;BMP_temperature;BMP_pressure;BME280_temperature;BME280_humidity;BME280_pressure;Samples;Min_cycle;Max_cycle;Signal;HPM_P1;HPM_P2
2022/03/26 00:00:49;;;;;;;33.13;20.93;;;9.90;72.20;;;;;;5051502;28;20232;-64
2022/03/26 00:03:17;;;;;;;29.20;19.67;;;9.90;72.10;;;;;;5052077;28;20212;-64
2022/03/26 00:05:45;;;;;;;33.70;19.37;;;9.90;72.10;;;;;;5051475;28;20225;-62
2022/03/26 00:08:12;;;;;;;31.80;20.47;;;9.80;72.40;;;;;;5051945;28;20244;-65
2022/03/26 00:10:39;;;;;;;29.77;20.07;;;9.80;73.20;;;;;;5051665;28;20279;-63
2022/03/26 00:13:07;;;;;;;30.63;21.73;;;9.70;73.40;;;;;;5052038;28;20216;-64
2022/03/26 00:15:34;;;;;;;29.37;21.10;;;9.60;74.70;;;;;;5051552;28;20307;-65
2022/03/26 00:18:01;;;;;;;34.57;22.77;;;9.40;75.40;;;;;;5051603;28;20205;-65
2022/03/26 00:20:28;;;;;;;32.07;22.67;;;9.30;75.70;;;;;;5051647;28;20226;-64
2022/03/26 00:22:56;;;;;;;29.97;21.43;;;9.30;75.90;;;;;;5051613;28;20201;-65
2022/03/26 00:25:23;;;;;;;33.60;21.40;;;9.20;75.80;;;;;;5051451;28;20221;-64
2022/03/26 00:27:50;;;;;;;31.90;20.53;;;9.20;76.50;;;;;;5051208;28;20209;-63
2022/03/26 00:30:17;;;;;;;34.17;20.60;;;9.10;76.50;;;;;;5051682;28;20213;-65
2022/03/26 00:32:44;;;;;;;30.40;19.10;;;9.00;77.10;;;;;;5053282;28;20212;-64
2022/03/26 00:35:10;;;;;;;27.60;19.27;;;8.90;77.40;;;;;;5055224;28;20696;-63
2022/03/26 00:37:40;;;;;;;28.87;18.73;;;8.90;77.40;;;;;;5055140;28;20232;-64
2022/03/26 00:40:10;;;;;;;29.03;18.83;;;8.80;77.30;;;;;;5055190;28;20221;-65
2022/03/26 00:42:37;;;;;;;29.30;19.93;;;8.80;77.50;;;;;;5055200;28;20263;-64
2022/03/26 00:45:05;;;;;;;30.27;18.83;;;8.70;77.50;;;;;;5055083;28;20622;-65
2022/03/26 00:47:32;;;;;;;26.20;18.60;;;8.80;77.50;;;;;;5055067;28;20205;-64
2022/03/26 00:49:59;;;;;;;33.47;18.93;;;8.70;77.80;;;;;;5055200;28;20206;-64
2022/03/26 00:52:26;;;;;;;31.83;19.33;;;8.70;78.00;;;;;;5055045;28;20724;-65
2022/03/26 00:54:52;;;;;;;31.00;20.93;;;8.70;78.30;;;;;;5054867;28;20564;-64
2022/03/26 00:57:21;;;;;;;30.97;20.10;;;8.70;78.90;;;;;;5054894;28;20298;-65
2022/03/26 00:59:48;;;;;;;32.67;20.27;;;8.60;79.10;;;;;;5054845;28;20707;-65
2022/03/26 01:02:15;;;;;;;30.47;20.70;;;8.50;79.60;;;;;;5055110;28;20206;-64
2022/03/26 01:04:41;;;;;;;32.00;20.37;;;8.50;79.60;;;;;;5054842;28;20205;-64
2022/03/26 01:07:08;;;;;;;31.03;20.30;;;8.40;80.00;;;;;;5054678;28;20279;-65
2022/03/26 01:09:35;;;;;;;29.70;20.60;;;8.40;79.90;;;;;;5055055;28;20620;-65
2022/03/26 01:12:02;;;;;;;28.23;19.73;;;8.40;80.20;;;;;;5055297;28;20210;-66
2022/03/26 01:14:30;;;;;;;32.80;21.57;;;8.40;80.30;;;;;;5055367;28;20236;-64
2022/03/26 01:16:57;;;;;;;28.50;20.00;;;8.30;80.40;;;;;;5054675;28;20303;-64
2022/03/26 01:19:23;;;;;;;34.60;21.57;;;8.20;80.40;;;;;;5054719;28;20206;-64
2022/03/26 01:21:50;;;;;;;30.47;20.63;;;8.20;80.60;;;;;;5054584;28;20588;-64
2022/03/26 01:24:17;;;;;;;34.37;22.63;;;8.20;80.70;;;;;;5054774;28;20209;-64
2022/03/26 01:26:44;;;;;;;30.07;22.07;;;8.10;80.70;;;;;;5054335;28;20643;-64
2022/03/26 01:29:11;;;;;;;37.60;22.37;;;8.10;80.70;;;;;;5054697;28;20237;-65
2022/03/26 01:31:39;;;;;;;34.27;21.00;;;8.10;81.00;;;;;;5054477;28;20198;-65
2022/03/26 01:34:06;;;;;;;33.03;20.73;;;8.10;81.50;;;;;;5054540;28;20210;-64
2022/03/26 01:36:33;;;;;;;26.93;20.13;;;8.00;81.70;;;;;;5053929;28;20229;-66
2022/03/26 01:38:59;;;;;;;30.60;20.23;;;7.90;82.20;;;;;;5054328;28;20213;-64
2022/03/26 01:41:26;;;;;;;27.57;19.57;;;7.90;82.30;;;;;;5054373;28;20233;-64
2022/03/26 01:43:53;;;;;;;25.87;18.80;;;7.90;82.70;;;;;;5053078;28;20205;-64
2022/03/26 01:46:20;;;;;;;30.90;18.73;;;7.80;83.70;;;;;;5054310;28;20286;-67
2022/03/26 01:48:49;;;;;;;28.23;18.80;;;7.70;84.30;;;;;;5054221;28;20202;-67
2022/03/26 01:51:16;;;;;;;29.93;19.33;;;7.70;84.50;;;;;;5054243;28;20324;-68
2022/03/26 01:53:44;;;;;;;29.50;19.10;;;7.50;84.20;;;;;;5054261;28;20209;-67
2022/03/26 01:56:12;;;;;;;26.60;17.90;;;7.50;84.30;;;;;;5054032;28;20312;-67
2022/03/26 01:58:38;;;;;;;28.47;18.13;;;7.50;84.60;;;;;;5054410;28;20206;-67
2022/03/26 02:01:05;;;;;;;25.57;17.40;;;7.50;85.10;;;;;;5054275;28;20232;-67
2022/03/26 02:03:32;;;;;;;24.90;16.90;;;7.40;85.20;;;;;;5054170;28;20228;-67
2022/03/26 02:06:01;;;;;;;26.50;18.17;;;7.40;85.80;;;;;;5053765;28;20229;-66
2022/03/26 02:08:27;;;;;;;23.30;16.97;;;7.30;85.70;;;;;;5054276;28;20209;-66
2022/03/26 02:10:54;;;;;;;26.77;17.57;;;7.30;85.70;;;;;;5054085;28;20213;-67
2022/03/26 02:13:21;;;;;;;25.80;17.67;;;7.30;86.10;;;;;;5053921;28;20574;-67
2022/03/26 02:15:48;;;;;;;25.97;17.73;;;7.10;86.30;;;;;;5053846;28;20237;-67
2022/03/26 02:18:15;;;;;;;25.63;17.73;;;7.10;86.80;;;;;;5054129;28;20212;-67
2022/03/26 02:20:44;;;;;;;28.57;18.00;;;7.00;86.90;;;;;;5053982;28;20634;-68
2022/03/26 02:23:11;;;;;;;25.90;18.27;;;7.00;87.20;;;;;;5053872;28;20201;-68
2022/03/26 02:25:38;;;;;;;28.90;18.93;;;6.90;87.60;;;;;;5053646;28;20229;-65
2022/03/26 02:28:05;;;;;;;27.63;17.80;;;6.80;88.60;;;;;;5054441;28;20634;-67
2022/03/26 02:30:33;;;;;;;34.00;18.80;;;6.60;89.10;;;;;;5056747;28;20205;-66
2022/03/26 02:33:00;;;;;;;25.50;17.57;;;6.60;89.30;;;;;;5055586;28;20210;-67
2022/03/26 02:35:27;;;;;;;29.53;21.57;;;6.50;89.50;;;;;;5056557;28;20236;-67
2022/03/26 02:37:55;;;;;;;27.63;18.57;;;6.50;89.80;;;;;;5054313;28;20225;-66
2022/03/26 02:40:22;;;;;;;25.23;17.27;;;6.50;90.00;;;;;;5053882;28;20225;-65
2022/03/26 02:42:49;;;;;;;26.80;17.13;;;6.50;90.10;;;;;;5053636;28;20216;-66
2022/03/26 02:45:15;;;;;;;26.23;16.53;;;6.40;90.10;;;;;;5053179;28;20206;-67
2022/03/26 02:47:42;;;;;;;24.97;17.47;;;6.30;90.30;;;;;;5053378;28;20228;-66
2022/03/26 02:50:09;;;;;;;26.97;18.60;;;6.20;90.50;;;;;;5053707;28;20212;-67
2022/03/26 02:52:37;;;;;;;24.90;17.97;;;6.10;90.90;;;;;;5053318;28;20206;-66
2022/03/26 02:55:07;;;;;;;27.43;17.80;;;6.00;91.00;;;;;;5053038;28;20575;-67
2022/03/26 02:57:34;;;;;;;26.10;17.20;;;5.90;91.30;;;;;;5053152;28;20206;-67
2022/03/26 03:00:01;;;;;;;23.47;17.07;;;5.90;91.40;;;;;;5055143;28;20213;-66
2022/03/26 03:02:27;;;;;;;27.67;18.57;;;5.80;91.50;;;;;;5058131;28;20673;-66
2022/03/26 03:04:54;;;;;;;25.87;17.87;;;5.80;91.60;;;;;;5058010;28;20206;-67
2022/03/26 03:07:21;;;;;;;28.47;18.03;;;5.90;91.60;;;;;;5057660;28;20252;-67
2022/03/26 03:09:48;;;;;;;29.13;19.40;;;5.90;91.60;;;;;;5057269;28;20205;-67
2022/03/26 03:12:16;;;;;;;34.27;18.50;;;5.80;91.60;;;;;;5057765;28;20255;-66
2022/03/26 03:14:43;;;;;;;26.50;16.97;;;5.80;91.50;;;;;;5057698;28;20205;-66
2022/03/26 03:17:09;;;;;;;28.13;17.90;;;5.70;91.70;;;;;;5058009;28;20225;-67
2022/03/26 03:19:36;;;;;;;27.57;17.87;;;5.70;91.80;;;;;;5058244;28;20206;-67
2022/03/26 03:22:04;;;;;;;26.47;17.77;;;5.60;92.00;;;;;;5058098;28;20225;-65
2022/03/26 03:24:31;;;;;;;26.97;17.83;;;5.50;92.00;;;;;;5057916;28;20239;-66
2022/03/26 03:26:57;;;;;;;28.70;17.77;;;5.50;92.00;;;;;;5053595;28;20229;-66
2022/03/26 03:29:26;;;;;;;26.70;18.90;;;5.50;92.50;;;;;;5053179;28;20209;-66
2022/03/26 03:31:52;;;;;;;27.27;18.43;;;5.40;92.30;;;;;;5052796;28;20206;-65
2022/03/26 03:34:19;;;;;;;30.20;18.07;;;5.40;92.40;;;;;;5052867;28;20252;-66
2022/03/26 03:36:46;;;;;;;26.70;17.07;;;5.40;92.50;;;;;;5052454;28;20233;-66
2022/03/26 03:39:12;;;;;;;27.40;17.73;;;5.40;92.60;;;;;;5053203;28;20621;-67
2022/03/26 03:41:39;;;;;;;26.47;17.73;;;5.40;92.60;;;;;;5053460;28;20225;-66
2022/03/26 03:44:07;;;;;;;26.07;16.43;;;5.30;92.60;;;;;;5054245;28;20258;-65
2022/03/26 03:46:35;;;;;;;25.23;17.27;;;5.10;93.00;;;;;;5052703;28;20244;-65
2022/03/26 03:49:02;;;;;;;29.93;17.60;;;4.90;93.40;;;;;;5053941;28;20633;-65
2022/03/26 03:51:29;;;;;;;24.10;16.33;;;4.80;93.60;;;;;;5056032;28;20240;-66
2022/03/26 03:53:55;;;;;;;26.80;17.70;;;4.80;93.70;;;;;;5055923;28;20213;-66
2022/03/26 03:56:23;;;;;;;23.73;16.93;;;4.70;94.00;;;;;;5058205;28;20221;-66
2022/03/26 03:58:50;;;;;;;28.63;17.57;;;4.70;94.00;;;;;;5055013;28;20242;-66
2022/03/26 04:01:16;;;;;;;23.20;16.87;;;4.80;94.00;;;;;;5057135;28;20689;-66
2022/03/26 04:03:44;;;;;;;27.47;17.37;;;4.80;93.90;;;;;;5057896;28;20259;-66
2022/03/26 04:06:11;;;;;;;28.03;18.13;;;4.90;93.90;;;;;;5067663;28;20225;-66
2022/03/26 04:08:38;;;;;;;29.63;17.50;;;4.80;93.90;;;;;;5069942;28;20204;-66
2022/03/26 04:11:04;;;;;;;34.73;17.77;;;4.90;93.90;;;;;;5076578;28;20213;-65
2022/03/26 04:13:31;;;;;;;25.93;16.80;;;4.90;94.00;;;;;;5076367;28;20213;-65
2022/03/26 04:15:58;;;;;;;29.00;17.70;;;4.80;94.00;;;;;;5069255;28;20229;-66
2022/03/26 04:18:24;;;;;;;30.20;17.93;;;4.80;94.10;;;;;;5065709;28;20228;-66
2022/03/26 04:20:53;;;;;;;28.17;17.90;;;4.70;94.10;;;;;;5076537;28;20232;-65
2022/03/26 04:23:20;;;;;;;31.27;17.03;;;4.70;94.30;;;;;;5077184;28;20209;-66
2022/03/26 04:25:48;;;;;;;26.60;17.37;;;4.60;94.50;;;;;;5075872;28;20233;-64
2022/03/26 04:28:14;;;;;;;28.83;18.40;;;4.50;94.70;;;;;;5075918;28;20222;-66
2022/03/26 04:30:41;;;;;;;26.57;18.47;;;4.30;94.90;;;;;;5076577;28;20193;-64
2022/03/26 04:33:08;;;;;;;25.10;17.47;;;4.20;95.10;;;;;;5075823;28;20209;-64
2022/03/26 04:35:35;;;;;;;26.20;17.40;;;4.30;95.20;;;;;;5070201;28;20233;-65
2022/03/26 04:38:03;;;;;;;26.93;18.67;;;4.30;95.10;;;;;;5057625;28;20666;-67
2022/03/26 04:40:30;;;;;;;27.23;20.13;;;4.40;95.10;;;;;;5057118;28;20636;-65
2022/03/26 04:42:57;;;;;;;32.87;19.53;;;4.40;95.10;;;;;;5056916;28;20201;-65
2022/03/26 04:45:24;;;;;;;31.30;20.50;;;4.40;95.20;;;;;;5056401;28;20257;-65
2022/03/26 04:47:51;;;;;;;28.30;18.27;;;4.30;95.30;;;;;;5056124;28;20209;-65
2022/03/26 04:50:17;;;;;;;30.73;17.80;;;4.20;95.50;;;;;;5056019;28;20201;-65
2022/03/26 04:52:44;;;;;;;30.00;18.90;;;4.20;95.60;;;;;;5056014;28;20734;-65
2022/03/26 04:55:13;;;;;;;26.33;17.77;;;4.20;95.70;;;;;;5056566;28;20477;-66
2022/03/26 04:57:40;;;;;;;28.47;18.17;;;4.20;95.80;;;;;;5056331;28;20206;-65
2022/03/26 05:00:09;;;;;;;25.80;17.17;;;4.10;95.90;;;;;;5056357;28;20237;-65
2022/03/26 05:02:39;;;;;;;28.93;18.43;;;4.10;95.90;;;;;;5056535;28;20313;-65
2022/03/26 05:05:06;;;;;;;26.23;17.33;;;4.20;95.80;;;;;;5055764;28;20206;-65
2022/03/26 05:07:48;;;;;;;26.03;16.90;;;4.20;96.00;;;;;;5055420;28;20213;-65
2022/03/26 05:10:18;;;;;;;29.20;17.03;;;4.10;96.00;;;;;;5055538;28;20216;-66
2022/03/26 05:12:45;;;;;;;30.50;17.10;;;4.10;96.00;;;;;;5055590;28;20681;-66
2022/03/26 05:15:14;;;;;;;27.97;18.37;;;4.10;96.20;;;;;;5055367;28;20615;-66
2022/03/26 05:17:41;;;;;;;27.57;17.33;;;4.10;96.10;;;;;;5055817;28;20211;-65
2022/03/26 05:20:09;;;;;;;27.80;16.87;;;4.10;96.10;;;;;;5058797;28;20205;-65
2022/03/26 05:22:37;;;;;;;29.27;17.43;;;4.10;96.00;;;;;;5063934;28;20232;-65
2022/03/26 05:25:04;;;;;;;26.87;16.97;;;4.20;96.00;;;;;;5057966;28;20266;-65
2022/03/26 05:27:32;;;;;;;31.03;21.20;;;4.20;96.00;;;;;;5055234;28;20209;-65
2022/03/26 05:29:59;;;;;;;30.27;18.70;;;4.20;96.00;;;;;;5054642;28;20206;-66
2022/03/26 05:32:26;;;;;;;26.13;17.70;;;4.20;96.00;;;;;;5054917;28;20369;-66
2022/03/26 05:34:53;;;;;;;28.27;18.50;;;4.20;96.00;;;;;;5054966;28;20202;-66
2022/03/26 05:37:20;;;;;;;29.27;18.73;;;4.20;96.00;;;;;;5054798;28;20240;-65
2022/03/26 05:39:47;;;;;;;28.43;19.40;;;4.20;96.20;;;;;;5055515;28;20206;-65
2022/03/26 05:42:14;;;;;;;27.77;18.10;;;4.20;96.20;;;;;;5054779;28;20224;-66
2022/03/26 05:44:42;;;;;;;30.17;17.43;;;4.30;96.10;;;;;;5054821;28;20217;-65
2022/03/26 05:47:09;;;;;;;28.67;17.93;;;4.40;96.10;;;;;;5054438;28;20592;-65
2022/03/26 05:49:36;;;;;;;32.07;17.50;;;4.40;96.10;;;;;;5054615;28;20665;-66
2022/03/26 05:52:03;;;;;;;27.37;17.73;;;4.30;96.30;;;;;;5054481;28;20202;-65
2022/03/26 05:54:30;;;;;;;28.60;17.23;;;4.30;96.40;;;;;;5054428;28;20623;-66
2022/03/26 05:56:57;;;;;;;24.77;16.97;;;4.40;96.30;;;;;;5054101;28;20729;-65
2022/03/26 05:59:26;;;;;;;27.23;17.07;;;4.40;96.20;;;;;;5054294;28;20585;-66
2022/03/26 06:01:54;;;;;;;28.47;17.77;;;4.50;96.10;;;;;;5054509;28;20226;-65
2022/03/26 06:04:22;;;;;;;25.60;17.23;;;4.70;95.90;;;;;;5054450;28;20209;-67
2022/03/26 06:06:48;;;;;;;25.00;17.60;;;4.70;95.80;;;;;;5055385;28;20272;-65
2022/03/26 06:09:15;;;;;;;26.87;17.33;;;4.90;95.80;;;;;;5054559;28;20205;-64
2022/03/26 06:11:42;;;;;;;29.37;19.00;;;5.00;95.60;;;;;;5054279;28;20213;-65
2022/03/26 06:14:09;;;;;;;30.80;17.70;;;5.30;95.60;;;;;;5054020;28;20228;-66
2022/03/26 06:16:35;;;;;;;27.20;17.80;;;5.70;95.70;;;;;;5053891;28;20283;-65
2022/03/26 06:19:04;;;;;;;24.50;16.03;;;6.60;94.80;;;;;;5053909;28;20209;-65
2022/03/26 06:21:30;;;;;;;26.67;17.57;;;7.70;93.40;;;;;;5053679;28;20229;-66
2022/03/26 06:23:58;;;;;;;25.37;16.77;;;8.80;91.60;;;;;;5053650;28;20264;-66
2022/03/26 06:26:25;;;;;;;29.20;16.87;;;9.70;88.40;;;;;;5053453;28;20599;-66
2022/03/26 06:28:52;;;;;;;24.10;17.10;;;10.50;84.90;;;;;;5054031;28;20652;-64
2022/03/26 06:31:19;;;;;;;24.10;16.07;;;11.30;82.00;;;;;;5054002;28;20241;-65
2022/03/26 06:33:46;;;;;;;23.20;15.60;;;12.00;79.20;;;;;;5053361;28;20211;-65
2022/03/26 06:36:14;;;;;;;23.80;16.43;;;12.70;77.70;;;;;;5053481;28;20672;-64
2022/03/26 06:38:41;;;;;;;24.67;16.93;;;13.40;75.50;;;;;;5053852;28;20669;-63
2022/03/26 06:41:09;;;;;;;23.13;17.47;;;14.10;72.30;;;;;;5053972;28;20201;-64
2022/03/26 06:43:37;;;;;;;24.47;15.80;;;14.80;70.60;;;;;;5053358;28;20209;-63
2022/03/26 06:46:04;;;;;;;26.57;16.63;;;15.50;69.60;;;;;;5053144;28;20329;-64
2022/03/26 06:48:31;;;;;;;21.87;16.23;;;16.20;66.80;;;;;;5053785;28;20201;-64
2022/03/26 06:50:58;;;;;;;23.60;15.80;;;16.90;65.60;;;;;;5052970;28;20208;-64
2022/03/26 06:53:27;;;;;;;25.58;16.45;;;17.50;62.80;;;;;;5053201;28;20632;-64
2022/03/26 06:55:53;;;;;;;21.05;16.20;;;18.00;60.80;;;;;;5053223;28;20272;-64
2022/03/26 06:58:20;;;;;;;23.05;17.35;;;18.50;59.70;;;;;;5053164;28;20208;-64
2022/03/26 07:00:47;;;;;;;24.15;17.05;;;18.80;58.70;;;;;;5053246;28;20212;-64
2022/03/26 07:03:13;;;;;;;22.80;17.17;;;19.10;58.30;;;;;;5053897;28;20229;-64
2022/03/26 07:05:40;;;;;;;22.25;16.80;;;19.50;57.60;;;;;;5053682;28;20234;-64
2022/03/26 07:08:09;;;;;;;23.27;16.55;;;20.00;57.50;;;;;;5054310;28;20201;-64
2022/03/26 07:10:37;;;;;;;23.42;17.52;;;20.60;56.60;;;;;;5054420;28;20217;-64
2022/03/26 07:13:04;;;;;;;24.40;17.23;;;20.40;54.80;;;;;;5053592;28;20607;-65
2022/03/26 07:15:31;;;;;;;23.90;17.17;;;20.10;55.40;;;;;;5052928;28;20317;-65
2022/03/26 07:17:59;;;;;;;34.47;25.73;;;20.00;55.70;;;;;;5053229;28;20206;-64
2022/03/26 07:20:26;;;;;;;26.73;17.75;;;20.10;55.50;;;;;;5054579;28;20240;-64
2022/03/26 07:22:53;;;;;;;26.13;18.00;;;20.50;54.10;;;;;;5053484;28;20320;-64
2022/03/26 07:25:20;;;;;;;24.10;17.48;;;21.10;53.00;;;;;;5053217;28;20210;-65
2022/03/26 07:27:48;;;;;;;31.15;18.48;;;21.80;51.80;;;;;;5052465;28;20589;-64
2022/03/26 07:30:14;;;;;;;23.58;17.48;;;22.40;51.40;;;;;;5052629;28;20584;-65
2022/03/26 07:32:41;;;;;;;23.45;17.45;;;23.00;50.00;;;;;;5052211;28;20206;-64
2022/03/26 07:35:09;;;;;;;25.27;16.80;;;23.30;49.20;;;;;;5052292;28;20259;-65
2022/03/26 07:37:36;;;;;;;22.20;18.10;;;23.30;49.00;;;;;;5051710;28;20241;-64
2022/03/26 07:40:03;;;;;;;23.50;18.33;;;23.40;49.00;;;;;;5052451;28;20213;-65
2022/03/26 07:42:30;;;;;;;22.05;18.00;;;23.80;48.50;;;;;;5051084;28;20229;-65
2022/03/26 07:44:58;;;;;;;22.45;17.52;;;24.30;47.40;;;;;;5052208;28;20228;-65
2022/03/26 07:47:25;;;;;;;20.73;17.90;;;24.50;46.50;;;;;;5045670;22;20716;-56
2022/03/26 07:49:52;;;;;;;22.98;17.08;;;24.50;46.50;;;;;;5032176;28;20648;-58
2022/03/26 07:52:18;;;;;;;24.63;17.63;;;23.60;46.60;;;;;;5031888;28;20645;-56
2022/03/26 07:54:45;;;;;;;22.98;17.30;;;22.30;48.30;;;;;;5031978;28;20583;-56
2022/03/26 07:57:12;;;;;;;23.42;17.40;;;22.40;48.40;;;;;;5016735;28;20227;-58
2022/03/26 07:59:38;;;;;;;25.27;17.83;;;21.70;49.00;;;;;;5012099;28;20209;-57
2022/03/26 08:02:07;;;;;;;24.13;17.98;;;20.50;50.80;;;;;;5011914;28;20222;-56
2022/03/26 08:04:35;;;;;;;32.78;18.23;;;19.30;52.30;;;;;;5012220;28;20206;-58
2022/03/26 08:07:01;;;;;;;28.73;18.48;;;18.20;54.40;;;;;;5011798;28;20227;-56
2022/03/26 08:09:28;;;;;;;24.67;17.98;;;17.10;56.40;;;;;;5011793;28;20266;-56
2022/03/26 08:11:55;;;;;;;28.13;18.63;;;16.20;57.70;;;;;;5012220;28;20210;-56
2022/03/26 08:14:21;;;;;;;26.88;18.80;;;15.10;59.90;;;;;;5012053;28;20235;-57
2022/03/26 08:16:49;;;;;;;25.77;18.43;;;14.20;62.50;;;;;;5012022;28;20226;-58
2022/03/26 08:19:17;;;;;;;29.60;18.77;;;13.60;62.90;;;;;;5012256;28;20214;-56
2022/03/26 08:21:43;;;;;;;26.70;17.73;;;13.40;64.10;;;;;;5012082;28;20261;-56
2022/03/26 08:24:12;;;;;;;31.07;18.80;;;13.50;64.20;;;;;;5011804;28;20674;-56
2022/03/26 08:26:39;;;;;;;28.67;18.23;;;13.70;64.50;;;;;;5011545;28;20627;-58
2022/03/26 08:29:06;;;;;;;27.07;18.63;;;13.80;64.40;;;;;;5011822;28;20210;-57
2022/03/26 08:31:33;;;;;;;25.17;18.00;;;13.90;64.50;;;;;;5011944;28;20226;-58
2022/03/26 08:33:59;;;;;;;26.83;18.83;;;13.80;65.40;;;;;;5012036;28;20210;-56
2022/03/26 08:36:27;;;;;;;27.60;18.77;;;13.80;65.50;;;;;;5011743;28;20230;-57
2022/03/26 08:38:54;;;;;;;27.17;18.07;;;13.90;65.50;;;;;;5011816;28;20626;-56
2022/03/26 08:41:23;;;;;;;31.67;19.10;;;13.80;66.00;;;;;;5012329;28;20550;-58
2022/03/26 08:43:50;;;;;;;28.93;18.40;;;13.80;66.10;;;;;;5011580;28;20235;-57
2022/03/26 08:46:18;;;;;;;33.20;19.93;;;13.90;66.00;;;;;;5011340;28;20238;-58
2022/03/26 08:48:46;;;;;;;26.23;18.73;;;14.10;65.70;;;;;;5011802;28;20229;-56
2022/03/26 08:51:13;;;;;;;27.63;17.50;;;14.30;65.40;;;;;;5012012;28;20211;-58
2022/03/26 08:53:41;;;;;;;28.23;18.50;;;14.30;65.10;;;;;;5013298;28;20211;-57
2022/03/26 08:56:08;;;;;;;30.33;19.07;;;14.30;65.20;;;;;;5015216;28;20223;-57
2022/03/26 08:58:36;;;;;;;30.33;19.70;;;14.40;65.20;;;;;;5015267;28;20260;-58
2022/03/26 09:01:04;;;;;;;29.70;19.57;;;14.40;65.30;;;;;;5006838;28;20655;-59
2022/03/26 09:03:31;;;;;;;31.20;20.43;;;14.40;65.00;;;;;;4995180;28;20227;-56
2022/03/26 09:05:58;;;;;;;28.83;18.70;;;14.40;65.20;;;;;;4994855;28;20286;-59
2022/03/26 09:08:26;;;;;;;28.30;17.90;;;14.60;64.80;;;;;;4995244;28;20207;-57
2022/03/26 09:10:54;;;;;;;29.70;18.27;;;14.90;64.10;;;;;;4995140;28;20218;-55
2022/03/26 09:13:20;;;;;;;26.60;18.27;;;14.80;64.20;;;;;;4995520;28;20306;-55
2022/03/26 09:15:47;;;;;;;30.33;20.10;;;15.00;64.20;;;;;;4995145;28;20227;-55
2022/03/26 09:18:14;;;;;;;30.90;19.40;;;15.20;63.00;;;;;;4994326;28;20212;-57
2022/03/26 09:20:41;;;;;;;34.60;20.27;;;15.30;63.80;;;;;;4995280;28;20291;-55
2022/03/26 09:23:08;;;;;;;30.03;20.00;;;15.20;63.40;;;;;;4994926;28;20297;-55
2022/03/26 09:25:35;;;;;;;26.70;19.03;;;15.30;62.70;;;;;;4995304;28;20211;-56
2022/03/26 09:28:04;;;;;;;33.47;20.47;;;15.40;62.00;;;;;;4994791;28;20211;-56
2022/03/26 09:30:31;;;;;;;29.33;19.47;;;15.70;61.50;;;;;;4994616;28;20262;-56
2022/03/26 09:32:58;;;;;;;30.70;20.70;;;16.00;60.90;;;;;;4994870;28;20208;-60
2022/03/26 09:35:25;;;;;;;29.03;19.57;;;16.20;59.70;;;;;;4994824;28;20211;-58
2022/03/26 09:37:52;;;;;;;27.60;19.20;;;16.10;59.70;;;;;;4994338;28;20214;-56
2022/03/26 09:40:21;;;;;;;31.43;19.33;;;15.90;60.50;;;;;;4994949;28;20641;-59
2022/03/26 09:42:49;;;;;;;34.37;20.20;;;15.80;61.20;;;;;;4994368;28;20695;-56
2022/03/26 09:45:18;;;;;;;30.50;20.50;;;16.20;60.80;;;;;;4994850;28;20218;-56
2022/03/26 09:47:45;;;;;;;31.13;19.47;;;16.30;59.80;;;;;;4994412;28;20589;-57
2022/03/26 09:50:13;;;;;;;29.07;19.70;;;16.50;60.00;;;;;;4994531;28;20215;-56
2022/03/26 09:52:40;;;;;;;30.17;19.43;;;16.80;59.10;;;;;;4994709;28;20199;-57
2022/03/26 09:55:11;;;;;;;30.10;20.02;;;17.20;57.50;;;;;;4994611;28;20254;-56
2022/03/26 09:57:39;;;;;;;26.63;19.37;;;17.40;58.00;;;;;;4993807;28;20286;-56
2022/03/26 10:00:08;;;;;;;27.95;18.42;;;17.50;57.80;;;;;;4994004;28;20243;-57
2022/03/26 10:02:36;;;;;;;26.98;18.35;;;17.70;55.30;;;;;;4994547;28;20230;-56
2022/03/26 10:05:05;;;;;;;30.90;19.67;;;17.80;54.40;;;;;;4992911;28;20204;-55
2022/03/26 10:07:32;;;;;;;27.98;18.92;;;18.00;53.50;;;;;;4994134;28;20855;-56
2022/03/26 10:09:59;;;;;;;26.20;19.15;;;18.20;53.40;;;;;;4994204;28;20262;-56
2022/03/26 10:12:27;;;;;;;32.30;19.55;;;18.30;53.10;;;;;;4994005;28;20211;-57
2022/03/26 10:14:56;;;;;;;30.05;19.25;;;18.50;53.10;;;;;;4994120;28;20207;-56
2022/03/26 10:17:24;;;;;;;24.33;18.05;;;18.70;51.70;;;;;;4993152;28;20232;-59
2022/03/26 10:19:54;;;;;;;27.88;18.25;;;18.70;52.10;;;;;;4994058;28;20562;-57
2022/03/26 10:22:30;;;;;;;25.33;17.40;;;18.80;51.80;;;;;;4994065;28;20634;-57
2022/03/26 10:24:58;;;;;;;25.15;17.90;;;18.90;51.30;;;;;;4993994;28;20210;-56
2022/03/26 10:27:26;;;;;;;24.20;17.38;;;18.90;51.00;;;;;;4993421;28;20719;-59
2022/03/26 10:29:54;;;;;;;23.70;16.55;;;19.00;50.20;;;;;;4993276;28;20730;-56
2022/03/26 10:32:40;;;;;;;26.63;18.08;;;18.90;50.60;;;;;;4993961;28;20203;-57
2022/03/26 10:35:22;;;;;;;22.83;17.05;;;19.10;49.80;;;;;;4993669;28;20291;-57
2022/03/26 10:37:56;;;;;;;20.20;15.95;;;19.10;49.50;;;;;;4993151;28;20211;-57
2022/03/26 10:40:31;;;;;;;21.48;15.55;;;19.00;49.10;;;;;;4993278;28;20211;-57
2022/03/26 10:43:00;;;;;;;21.00;15.27;;;19.00;48.50;;;;;;4993431;28;20227;-54
2022/03/26 10:45:28;;;;;;;21.58;16.15;;;19.10;48.60;;;;;;4993696;28;20262;-66
2022/03/26 10:47:56;;;;;;;24.02;16.25;;;19.00;48.50;;;;;;4993728;28;20208;-63
2022/03/26 10:50:25;;;;;;;22.55;16.70;;;19.00;48.10;;;;;;4993382;28;20567;-62
2022/03/26 10:52:55;;;;;;;22.30;16.20;;;19.00;48.30;;;;;;4993400;28;20207;-62
2022/03/26 10:55:23;;;;;;;21.38;15.65;;;19.00;48.60;;;;;;4993221;28;20298;-63
2022/03/26 10:57:50;;;;;;;27.05;15.98;;;19.00;48.90;;;;;;4993166;28;20274;-63
2022/03/26 11:00:19;;;;;;;21.15;15.43;;;18.90;48.80;;;;;;4993398;28;20208;-67
2022/03/26 11:02:46;;;;;;;17.92;13.98;;;19.00;49.20;;;;;;4993217;28;20210;-66
2022/03/26 11:05:13;;;;;;;21.10;16.15;;;19.00;47.80;;;;;;4993146;28;20212;-67
2022/03/26 11:07:42;;;;;;;20.80;15.43;;;19.10;48.60;;;;;;4992590;28;20312;-66
2022/03/26 11:10:11;;;;;;;19.85;15.02;;;19.00;48.50;;;;;;4993268;28;20207;-65
2022/03/26 11:12:43;;;;;;;22.02;15.23;;;19.00;48.70;;;;;;4993424;28;20218;-65
2022/03/26 11:15:13;;;;;;;23.90;15.15;;;19.00;48.00;;;;;;4993498;28;20294;-66
2022/03/26 11:17:55;;;;;;;23.73;15.02;;;19.10;49.10;;;;;;4992469;28;20324;-66
2022/03/26 11:20:36;;;;;;;23.02;14.95;;;19.10;51.00;;;;;;4993293;28;20211;-67
2022/03/26 11:23:18;;;;;;;25.92;16.20;;;19.10;50.40;;;;;;4992936;28;20749;-65
2022/03/26 11:26:13;;;;;;;24.63;15.70;;;19.20;50.90;;;;;;4993139;28;20719;-66
2022/03/26 11:28:47;;;;;;;23.67;15.77;;;19.30;51.20;;;;;;4992873;28;20207;-66
2022/03/26 11:31:21;;;;;;;25.00;14.85;;;19.30;52.20;;;;;;4992723;28;20257;-67
2022/03/26 11:33:49;;;;;;;21.95;15.32;;;19.30;51.40;;;;;;4993060;28;20214;-66
2022/03/26 11:36:18;;;;;;;27.58;15.02;;;19.20;50.90;;;;;;4993062;28;20310;-66
2022/03/26 11:38:56;;;;;;;25.60;15.20;;;19.10;51.10;;;;;;4992656;28;20273;-66
2022/03/26 11:41:33;;;;;;;25.40;14.80;;;19.00;50.30;;;;;;4993097;28;20215;-66
2022/03/26 11:44:01;;;;;;;20.65;14.25;;;18.90;50.30;;;;;;4992599;28;20344;-66
2022/03/26 11:52:29;;;;;;;23.30;13.57;;;18.90;50.30;;;;;;4992750;28;20211;-66
2022/03/26 11:55:01;;;;;;;23.15;13.80;;;18.80;49.30;;;;;;4992834;28;20250;-66
2022/03/26 11:57:29;;;;;;;19.95;14.20;;;18.90;49.00;;;;;;4992341;28;20227;-66
2022/03/26 11:59:56;;;;;;;21.40;13.80;;;18.90;48.70;;;;;;4992912;28;20208;-66
2022/03/26 12:02:25;;;;;;;23.13;13.82;;;19.00;48.30;;;;;;4993046;28;20211;-66
2022/03/26 12:04:55;;;;;;;18.98;13.23;;;19.20;48.30;;;;;;4992559;28;20228;-67
2022/03/26 12:07:23;;;;;;;19.30;13.43;;;19.20;46.50;;;;;;4992062;28;20235;-67
2022/03/26 12:10:05;;;;;;;20.95;13.32;;;19.10;47.50;;;;;;4992512;28;20211;-68
2022/03/26 12:12:46;;;;;;;18.05;13.43;;;19.20;47.90;;;;;;4992467;28;20634;-67
2022/03/26 12:15:30;;;;;;;19.95;13.73;;;19.20;47.90;;;;;;4992669;28;20209;-65
2022/03/26 12:18:15;;;;;;;19.70;13.55;;;19.20;48.00;;;;;;4992653;28;20203;-66
2022/03/26 12:20:43;;;;;;;17.42;12.75;;;19.20;48.10;;;;;;4992736;28;20203;-66
2022/03/26 12:23:13;;;;;;;22.40;12.82;;;19.30;47.00;;;;;;4992929;28;20583;-66
2022/03/26 12:25:46;;;;;;;19.40;13.07;;;19.30;47.10;;;;;;4992509;28;20574;-65
2022/03/26 12:28:13;;;;;;;20.80;11.68;;;19.50;47.10;;;;;;4993019;28;20211;-66
2022/03/26 12:30:45;;;;;;;17.65;12.25;;;19.50;46.00;;;;;;4996057;28;20294;-65
2022/03/26 12:33:13;;;;;;;21.10;12.50;;;19.70;46.60;;;;;;4996126;28;20656;-65
2022/03/26 12:35:40;;;;;;;21.80;14.43;;;19.80;47.00;;;;;;4996382;28;20239;-63
2022/03/26 12:38:08;;;;;;;20.42;13.65;;;19.70;47.40;;;;;;4995901;28;20218;-63
2022/03/26 12:40:36;;;;;;;19.92;12.77;;;19.60;46.90;;;;;;4995967;28;20212;-63
2022/03/26 12:43:04;;;;;;;19.67;12.82;;;19.70;46.10;;;;;;4995934;28;20207;-62